ilmateenistus.ee keskkonnaagentuur.ee
EETN Tallinna lennuväli
FTEO31 EETN 171700
TAF EETN 171705Z 1718/1818 31014KT 8000 BKN008 OVC015 TEMPO 1718/1721
    3000 FZDZ SG OVC005 BECMG 1800/1801 VRB02KT TEMPO 1803/1816 2000 SHSN
    BKN010 SCT015CB PROB40 TEMPO 1803/1806 -FZDZ=

SPECI EETN 172101Z 30014KT 9999 OVC014 M05/M07 Q0990 R08/820294=
Tallinna lennuväli
EEKA Kärdla lennuväli
METAR EEKA 172050Z NIL=
Kärdla lennuväli
EEKE Kuressaare lennuväli
FCEO32 EETN 171500 AAA
TAF AMD EEKE 171900Z 1716/1722 CNL=

METAR EEKE 172050Z AUTO 33006G17KT 290V010 9999NDV SCT025 SCT045 OVC051 M02/M05 Q0993=
Kuressaare lennuväli
EEPU Pärnu lennuväli
METAR EEPU 172050Z NIL=
Pärnu lennuväli
EETU Tartu lennuväli
FCEO32 EETN 172100
TAF EETU 172100Z 1722/1804 28015KT 9999 BKN020 TEMPO 1722/0801 BKN008
    OVC015 PROB40 TEMPO 1722/1801 -FZDZ BECMG 1802/1804 24005KT=

METAR EETU 172050Z 28015KT 9999 OVC022 M02/M07 Q0988=
Tartu lennuväli
EEEI Ämari lennuväli
METAR EEEI 172050Z 30009KT 9999 OVC014 M05/M08 Q0991 R24/290095=
Ämari lennuväli